Terminal Aerodrome Forecast
Issued by NWS Norman, OK

Home | Current Version | Previous Version | Text Only | Print | Product List | Glossary On
Versions: 1 2 3 4 5 6 7 8 9 10 11 12
000
FTUS44 KOUN 241133
TAFSPS
TAF
KSPS 241133Z 2412/2512 15006KT P6SM SKC
     FM241600 20011KT P6SM FEW250
     FM242200 16010KT P6SM FEW250
     FM250100 13007KT P6SM SCT250=

USA.gov is the U.S. government's official web portal to all federal, state and local government web resources and services.